sensor_id;sensor_type;location;lat;lon;timestamp;P1;durP1;ratioP1;P2;durP2;ratioP2
64188;SDS011;50493;50.970;10.082;2023-06-19T00:01:17;9.25;;;7.68;;
64188;SDS011;50493;50.970;10.082;2023-06-19T00:03:43;9.30;;;7.50;;
64188;SDS011;50493;50.970;10.082;2023-06-19T00:06:09;9.93;;;7.93;;
64188;SDS011;50493;50.970;10.082;2023-06-19T00:08:37;9.48;;;8.00;;
64188;SDS011;50493;50.970;10.082;2023-06-19T00:11:02;9.68;;;7.68;;
64188;SDS011;50493;50.970;10.082;2023-06-19T00:13:28;8.65;;;7.57;;
64188;SDS011;50493;50.970;10.082;2023-06-19T00:15:53;9.70;;;8.07;;
64188;SDS011;50493;50.970;10.082;2023-06-19T00:18:18;9.13;;;7.35;;
64188;SDS011;50493;50.970;10.082;2023-06-19T00:20:44;8.85;;;7.38;;
64188;SDS011;50493;50.970;10.082;2023-06-19T00:23:12;9.18;;;7.60;;
64188;SDS011;50493;50.970;10.082;2023-06-19T00:25:39;8.82;;;7.78;;
64188;SDS011;50493;50.970;10.082;2023-06-19T00:28:05;9.15;;;8.25;;
64188;SDS011;50493;50.970;10.082;2023-06-19T00:30:36;9.75;;;7.93;;
64188;SDS011;50493;50.970;10.082;2023-06-19T00:33:01;11.35;;;7.70;;
64188;SDS011;50493;50.970;10.082;2023-06-19T00:35:28;8.77;;;7.63;;
64188;SDS011;50493;50.970;10.082;2023-06-19T00:37:53;9.23;;;8.02;;
64188;SDS011;50493;50.970;10.082;2023-06-19T00:40:21;9.02;;;7.75;;
64188;SDS011;50493;50.970;10.082;2023-06-19T00:42:51;9.32;;;8.00;;
64188;SDS011;50493;50.970;10.082;2023-06-19T00:45:17;8.60;;;7.70;;
64188;SDS011;50493;50.970;10.082;2023-06-19T00:47:42;8.95;;;7.88;;
64188;SDS011;50493;50.970;10.082;2023-06-19T00:50:08;8.75;;;7.65;;
64188;SDS011;50493;50.970;10.082;2023-06-19T00:52:34;9.18;;;8.10;;
64188;SDS011;50493;50.970;10.082;2023-06-19T00:55:00;8.85;;;7.78;;
64188;SDS011;50493;50.970;10.082;2023-06-19T00:57:27;8.73;;;7.60;;
64188;SDS011;50493;50.970;10.082;2023-06-19T00:59:53;9.38;;;7.90;;
64188;SDS011;50493;50.970;10.082;2023-06-19T01:02:19;11.38;;;7.43;;
64188;SDS011;50493;50.970;10.082;2023-06-19T01:04:48;9.45;;;8.18;;
64188;SDS011;50493;50.970;10.082;2023-06-19T01:07:14;9.38;;;8.13;;
64188;SDS011;50493;50.970;10.082;2023-06-19T01:09:44;9.40;;;7.85;;
64188;SDS011;50493;50.970;10.082;2023-06-19T01:12:13;9.52;;;8.10;;
64188;SDS011;50493;50.970;10.082;2023-06-19T01:17:12;9.10;;;7.63;;
64188;SDS011;50493;50.970;10.082;2023-06-19T01:19:38;9.55;;;7.72;;
64188;SDS011;50493;50.970;10.082;2023-06-19T01:22:05;8.98;;;7.78;;
64188;SDS011;50493;50.970;10.082;2023-06-19T01:24:31;9.60;;;8.20;;
64188;SDS011;50493;50.970;10.082;2023-06-19T01:26:56;9.30;;;7.72;;
64188;SDS011;50493;50.970;10.082;2023-06-19T01:29:22;9.35;;;7.72;;
64188;SDS011;50493;50.970;10.082;2023-06-19T01:31:49;10.23;;;8.20;;
64188;SDS011;50493;50.970;10.082;2023-06-19T01:34:19;9.73;;;8.35;;
64188;SDS011;50493;50.970;10.082;2023-06-19T01:36:46;8.77;;;7.63;;
64188;SDS011;50493;50.970;10.082;2023-06-19T01:39:14;9.65;;;8.25;;
64188;SDS011;50493;50.970;10.082;2023-06-19T01:41:40;9.32;;;7.82;;
64188;SDS011;50493;50.970;10.082;2023-06-19T01:44:07;9.65;;;7.85;;
64188;SDS011;50493;50.970;10.082;2023-06-19T01:46:33;8.57;;;7.68;;
64188;SDS011;50493;50.970;10.082;2023-06-19T01:48:59;10.02;;;8.55;;
64188;SDS011;50493;50.970;10.082;2023-06-19T01:51:25;10.10;;;8.40;;
64188;SDS011;50493;50.970;10.082;2023-06-19T01:53:50;10.18;;;8.13;;
64188;SDS011;50493;50.970;10.082;2023-06-19T01:56:17;9.18;;;7.90;;
64188;SDS011;50493;50.970;10.082;2023-06-19T01:58:42;10.00;;;7.95;;
64188;SDS011;50493;50.970;10.082;2023-06-19T02:01:07;9.57;;;8.20;;
64188;SDS011;50493;50.970;10.082;2023-06-19T02:03:33;9.98;;;7.88;;
64188;SDS011;50493;50.970;10.082;2023-06-19T02:05:58;9.45;;;7.75;;
64188;SDS011;50493;50.970;10.082;2023-06-19T02:08:23;9.73;;;8.15;;
64188;SDS011;50493;50.970;10.082;2023-06-19T02:10:49;9.85;;;8.10;;
64188;SDS011;50493;50.970;10.082;2023-06-19T02:13:15;9.40;;;8.07;;
64188;SDS011;50493;50.970;10.082;2023-06-19T02:15:41;9.23;;;7.75;;
64188;SDS011;50493;50.970;10.082;2023-06-19T02:18:06;11.05;;;8.50;;
64188;SDS011;50493;50.970;10.082;2023-06-19T02:20:32;9.25;;;8.07;;
64188;SDS011;50493;50.970;10.082;2023-06-19T02:22:57;9.38;;;8.35;;
64188;SDS011;50493;50.970;10.082;2023-06-19T02:25:23;9.32;;;8.23;;
64188;SDS011;50493;50.970;10.082;2023-06-19T02:27:48;9.85;;;8.32;;
64188;SDS011;50493;50.970;10.082;2023-06-19T02:30:15;9.98;;;8.20;;
64188;SDS011;50493;50.970;10.082;2023-06-19T02:32:40;9.02;;;7.93;;
64188;SDS011;50493;50.970;10.082;2023-06-19T02:35:07;9.00;;;7.70;;
64188;SDS011;50493;50.970;10.082;2023-06-19T02:37:34;9.85;;;8.43;;
64188;SDS011;50493;50.970;10.082;2023-06-19T02:40:03;8.90;;;7.50;;
64188;SDS011;50493;50.970;10.082;2023-06-19T02:42:29;9.57;;;8.10;;
64188;SDS011;50493;50.970;10.082;2023-06-19T02:44:55;10.95;;;8.43;;
64188;SDS011;50493;50.970;10.082;2023-06-19T02:47:29;10.15;;;7.90;;
64188;SDS011;50493;50.970;10.082;2023-06-19T02:49:55;9.10;;;7.68;;
64188;SDS011;50493;50.970;10.082;2023-06-19T02:52:20;11.05;;;9.13;;
64188;SDS011;50493;50.970;10.082;2023-06-19T02:54:46;9.60;;;8.13;;
64188;SDS011;50493;50.970;10.082;2023-06-19T02:57:11;9.60;;;8.23;;
64188;SDS011;50493;50.970;10.082;2023-06-19T02:59:37;11.85;;;8.43;;
64188;SDS011;50493;50.970;10.082;2023-06-19T03:02:02;10.73;;;8.68;;
64188;SDS011;50493;50.970;10.082;2023-06-19T03:04:29;9.90;;;8.15;;
64188;SDS011;50493;50.970;10.082;2023-06-19T03:06:54;11.48;;;8.57;;
64188;SDS011;50493;50.970;10.082;2023-06-19T03:09:19;9.68;;;8.15;;
64188;SDS011;50493;50.970;10.082;2023-06-19T03:11:45;9.70;;;7.85;;
64188;SDS011;50493;50.970;10.082;2023-06-19T03:14:10;9.27;;;8.20;;
64188;SDS011;50493;50.970;10.082;2023-06-19T03:16:35;9.88;;;8.27;;
64188;SDS011;50493;50.970;10.082;2023-06-19T03:19:01;10.68;;;8.57;;
64188;SDS011;50493;50.970;10.082;2023-06-19T03:21:28;10.40;;;8.68;;
64188;SDS011;50493;50.970;10.082;2023-06-19T03:23:53;10.00;;;8.43;;
64188;SDS011;50493;50.970;10.082;2023-06-19T03:26:19;9.60;;;8.43;;
64188;SDS011;50493;50.970;10.082;2023-06-19T03:28:45;10.90;;;8.82;;
64188;SDS011;50493;50.970;10.082;2023-06-19T03:31:12;10.98;;;8.70;;
64188;SDS011;50493;50.970;10.082;2023-06-19T03:33:37;9.65;;;8.10;;
64188;SDS011;50493;50.970;10.082;2023-06-19T03:36:03;10.63;;;8.23;;
64188;SDS011;50493;50.970;10.082;2023-06-19T03:38:29;10.20;;;8.57;;
64188;SDS011;50493;50.970;10.082;2023-06-19T03:40:55;10.43;;;8.45;;
64188;SDS011;50493;50.970;10.082;2023-06-19T03:43:20;10.32;;;8.65;;
64188;SDS011;50493;50.970;10.082;2023-06-19T03:45:46;11.80;;;8.25;;
64188;SDS011;50493;50.970;10.082;2023-06-19T03:48:11;10.63;;;8.55;;
64188;SDS011;50493;50.970;10.082;2023-06-19T03:50:36;10.73;;;9.15;;
64188;SDS011;50493;50.970;10.082;2023-06-19T03:53:02;10.13;;;8.50;;
64188;SDS011;50493;50.970;10.082;2023-06-19T03:55:28;10.75;;;8.52;;
64188;SDS011;50493;50.970;10.082;2023-06-19T03:57:54;12.07;;;9.20;;
64188;SDS011;50493;50.970;10.082;2023-06-19T04:00:19;10.63;;;9.00;;
64188;SDS011;50493;50.970;10.082;2023-06-19T04:02:44;10.20;;;8.50;;
64188;SDS011;50493;50.970;10.082;2023-06-19T04:05:11;10.05;;;8.55;;
64188;SDS011;50493;50.970;10.082;2023-06-19T04:07:36;10.00;;;8.50;;
64188;SDS011;50493;50.970;10.082;2023-06-19T04:10:02;10.75;;;9.10;;
64188;SDS011;50493;50.970;10.082;2023-06-19T04:12:29;11.77;;;8.48;;
64188;SDS011;50493;50.970;10.082;2023-06-19T04:14:54;11.25;;;8.77;;
64188;SDS011;50493;50.970;10.082;2023-06-19T04:17:20;10.98;;;8.55;;
64188;SDS011;50493;50.970;10.082;2023-06-19T04:19:45;12.65;;;8.95;;
64188;SDS011;50493;50.970;10.082;2023-06-19T04:22:10;9.52;;;8.52;;
64188;SDS011;50493;50.970;10.082;2023-06-19T04:24:36;10.07;;;8.27;;
64188;SDS011;50493;50.970;10.082;2023-06-19T04:27:01;9.90;;;8.52;;
64188;SDS011;50493;50.970;10.082;2023-06-19T04:29:28;10.80;;;8.55;;
64188;SDS011;50493;50.970;10.082;2023-06-19T04:31:56;9.65;;;8.18;;
64188;SDS011;50493;50.970;10.082;2023-06-19T04:34:22;11.82;;;8.60;;
64188;SDS011;50493;50.970;10.082;2023-06-19T04:36:47;10.30;;;8.55;;
64188;SDS011;50493;50.970;10.082;2023-06-19T04:39:13;10.70;;;8.55;;
64188;SDS011;50493;50.970;10.082;2023-06-19T04:41:40;9.98;;;8.68;;
64188;SDS011;50493;50.970;10.082;2023-06-19T04:44:06;10.43;;;8.70;;
64188;SDS011;50493;50.970;10.082;2023-06-19T04:46:33;9.43;;;8.18;;
64188;SDS011;50493;50.970;10.082;2023-06-19T04:48:59;10.38;;;8.77;;
64188;SDS011;50493;50.970;10.082;2023-06-19T04:51:24;10.23;;;8.68;;
64188;SDS011;50493;50.970;10.082;2023-06-19T04:53:51;10.25;;;8.57;;
64188;SDS011;50493;50.970;10.082;2023-06-19T04:56:16;10.65;;;9.05;;
64188;SDS011;50493;50.970;10.082;2023-06-19T04:58:42;11.45;;;8.38;;
64188;SDS011;50493;50.970;10.082;2023-06-19T05:01:13;10.00;;;8.52;;
64188;SDS011;50493;50.970;10.082;2023-06-19T05:03:41;10.18;;;8.80;;
64188;SDS011;50493;50.970;10.082;2023-06-19T05:06:11;10.43;;;8.27;;
64188;SDS011;50493;50.970;10.082;2023-06-19T05:08:36;10.38;;;8.35;;
64188;SDS011;50493;50.970;10.082;2023-06-19T05:11:02;12.05;;;9.40;;
64188;SDS011;50493;50.970;10.082;2023-06-19T05:13:27;9.93;;;8.68;;
64188;SDS011;50493;50.970;10.082;2023-06-19T05:15:53;10.90;;;9.07;;
64188;SDS011;50493;50.970;10.082;2023-06-19T05:18:18;10.98;;;9.18;;
64188;SDS011;50493;50.970;10.082;2023-06-19T05:20:45;13.02;;;9.95;;
64188;SDS011;50493;50.970;10.082;2023-06-19T05:23:10;12.13;;;9.88;;
64188;SDS011;50493;50.970;10.082;2023-06-19T05:25:36;13.80;;;9.48;;
64188;SDS011;50493;50.970;10.082;2023-06-19T05:28:01;12.95;;;9.68;;
64188;SDS011;50493;50.970;10.082;2023-06-19T05:30:26;15.70;;;9.13;;
64188;SDS011;50493;50.970;10.082;2023-06-19T05:32:52;13.07;;;9.20;;
64188;SDS011;50493;50.970;10.082;2023-06-19T05:35:17;12.23;;;9.43;;
64188;SDS011;50493;50.970;10.082;2023-06-19T05:37:45;13.30;;;9.07;;
64188;SDS011;50493;50.970;10.082;2023-06-19T05:40:10;13.32;;;9.50;;
64188;SDS011;50493;50.970;10.082;2023-06-19T05:42:36;11.90;;;9.20;;
64188;SDS011;50493;50.970;10.082;2023-06-19T05:45:02;14.60;;;10.70;;
64188;SDS011;50493;50.970;10.082;2023-06-19T05:47:27;14.02;;;9.85;;
64188;SDS011;50493;50.970;10.082;2023-06-19T05:49:54;14.80;;;9.90;;
64188;SDS011;50493;50.970;10.082;2023-06-19T05:52:19;14.63;;;10.93;;
64188;SDS011;50493;50.970;10.082;2023-06-19T05:54:47;11.75;;;9.55;;
64188;SDS011;50493;50.970;10.082;2023-06-19T05:57:12;16.70;;;11.38;;
64188;SDS011;50493;50.970;10.082;2023-06-19T05:59:40;13.63;;;9.38;;
64188;SDS011;50493;50.970;10.082;2023-06-19T06:02:06;12.30;;;9.85;;
64188;SDS011;50493;50.970;10.082;2023-06-19T06:04:32;11.80;;;9.68;;
64188;SDS011;50493;50.970;10.082;2023-06-19T06:06:59;15.77;;;9.70;;
64188;SDS011;50493;50.970;10.082;2023-06-19T06:09:24;53.55;;;12.93;;
64188;SDS011;50493;50.970;10.082;2023-06-19T06:11:51;17.90;;;9.45;;
64188;SDS011;50493;50.970;10.082;2023-06-19T06:14:16;15.30;;;9.80;;
64188;SDS011;50493;50.970;10.082;2023-06-19T06:16:42;14.60;;;9.05;;
64188;SDS011;50493;50.970;10.082;2023-06-19T06:19:07;13.35;;;9.57;;
64188;SDS011;50493;50.970;10.082;2023-06-19T06:21:32;12.73;;;9.20;;
64188;SDS011;50493;50.970;10.082;2023-06-19T06:23:59;12.32;;;9.48;;
64188;SDS011;50493;50.970;10.082;2023-06-19T06:26:25;18.70;;;10.65;;
64188;SDS011;50493;50.970;10.082;2023-06-19T06:28:52;11.30;;;9.20;;
64188;SDS011;50493;50.970;10.082;2023-06-19T06:31:17;11.82;;;9.27;;
64188;SDS011;50493;50.970;10.082;2023-06-19T06:33:43;11.23;;;9.02;;
64188;SDS011;50493;50.970;10.082;2023-06-19T06:36:08;12.57;;;9.32;;
64188;SDS011;50493;50.970;10.082;2023-06-19T06:38:33;12.13;;;9.00;;
64188;SDS011;50493;50.970;10.082;2023-06-19T06:40:59;17.70;;;11.27;;
64188;SDS011;50493;50.970;10.082;2023-06-19T06:43:24;16.13;;;11.30;;
64188;SDS011;50493;50.970;10.082;2023-06-19T06:45:51;17.00;;;11.75;;
64188;SDS011;50493;50.970;10.082;2023-06-19T06:48:16;18.33;;;10.45;;
64188;SDS011;50493;50.970;10.082;2023-06-19T06:50:42;14.95;;;11.55;;
64188;SDS011;50493;50.970;10.082;2023-06-19T06:53:07;13.15;;;10.18;;
64188;SDS011;50493;50.970;10.082;2023-06-19T06:55:33;13.77;;;9.88;;
64188;SDS011;50493;50.970;10.082;2023-06-19T06:57:58;12.20;;;10.25;;
64188;SDS011;50493;50.970;10.082;2023-06-19T07:00:24;11.10;;;8.98;;
64188;SDS011;50493;50.970;10.082;2023-06-19T07:02:50;11.07;;;8.82;;
64188;SDS011;50493;50.970;10.082;2023-06-19T07:05:16;11.52;;;9.15;;
64188;SDS011;50493;50.970;10.082;2023-06-19T07:07:41;10.82;;;9.23;;
64188;SDS011;50493;50.970;10.082;2023-06-19T07:10:07;10.98;;;8.70;;
64188;SDS011;50493;50.970;10.082;2023-06-19T07:12:34;14.95;;;9.98;;
64188;SDS011;50493;50.970;10.082;2023-06-19T07:14:59;17.70;;;10.65;;
64188;SDS011;50493;50.970;10.082;2023-06-19T07:17:24;11.20;;;9.00;;
64188;SDS011;50493;50.970;10.082;2023-06-19T07:19:51;11.77;;;8.93;;
64188;SDS011;50493;50.970;10.082;2023-06-19T07:22:16;17.80;;;11.50;;
64188;SDS011;50493;50.970;10.082;2023-06-19T07:24:42;11.23;;;9.02;;
64188;SDS011;50493;50.970;10.082;2023-06-19T07:27:07;14.65;;;9.77;;
64188;SDS011;50493;50.970;10.082;2023-06-19T07:29:33;13.07;;;9.35;;
64188;SDS011;50493;50.970;10.082;2023-06-19T07:31:58;9.95;;;8.77;;
64188;SDS011;50493;50.970;10.082;2023-06-19T07:34:23;12.52;;;9.43;;
64188;SDS011;50493;50.970;10.082;2023-06-19T07:36:50;12.23;;;9.68;;
64188;SDS011;50493;50.970;10.082;2023-06-19T07:39:16;11.70;;;9.55;;
64188;SDS011;50493;50.970;10.082;2023-06-19T07:41:41;13.18;;;10.27;;
64188;SDS011;50493;50.970;10.082;2023-06-19T07:44:06;11.90;;;10.15;;
64188;SDS011;50493;50.970;10.082;2023-06-19T07:46:32;14.55;;;9.95;;
64188;SDS011;50493;50.970;10.082;2023-06-19T07:48:57;12.73;;;10.23;;
64188;SDS011;50493;50.970;10.082;2023-06-19T07:51:23;10.20;;;9.15;;
64188;SDS011;50493;50.970;10.082;2023-06-19T07:53:49;14.25;;;10.65;;
64188;SDS011;50493;50.970;10.082;2023-06-19T07:56:15;11.27;;;9.63;;
64188;SDS011;50493;50.970;10.082;2023-06-19T07:58:40;12.85;;;9.80;;
64188;SDS011;50493;50.970;10.082;2023-06-19T08:01:06;11.82;;;9.07;;
64188;SDS011;50493;50.970;10.082;2023-06-19T08:03:31;13.63;;;9.52;;
64188;SDS011;50493;50.970;10.082;2023-06-19T08:05:57;11.27;;;9.40;;
64188;SDS011;50493;50.970;10.082;2023-06-19T08:08:22;12.02;;;8.88;;
64188;SDS011;50493;50.970;10.082;2023-06-19T08:10:49;21.50;;;9.90;;
64188;SDS011;50493;50.970;10.082;2023-06-19T08:13:14;11.48;;;9.45;;
64188;SDS011;50493;50.970;10.082;2023-06-19T08:15:40;11.27;;;9.52;;
64188;SDS011;50493;50.970;10.082;2023-06-19T08:18:05;10.48;;;8.88;;
64188;SDS011;50493;50.970;10.082;2023-06-19T08:20:30;12.95;;;9.18;;
64188;SDS011;50493;50.970;10.082;2023-06-19T08:22:56;12.38;;;9.38;;
64188;SDS011;50493;50.970;10.082;2023-06-19T08:25:21;9.70;;;8.70;;
64188;SDS011;50493;50.970;10.082;2023-06-19T08:27:48;10.32;;;8.57;;
64188;SDS011;50493;50.970;10.082;2023-06-19T08:30:14;11.20;;;8.52;;
64188;SDS011;50493;50.970;10.082;2023-06-19T08:32:39;9.57;;;8.32;;
64188;SDS011;50493;50.970;10.082;2023-06-19T08:35:05;12.77;;;9.05;;
64188;SDS011;50493;50.970;10.082;2023-06-19T08:37:31;11.98;;;8.85;;
64188;SDS011;50493;50.970;10.082;2023-06-19T08:39:56;9.13;;;8.13;;
64188;SDS011;50493;50.970;10.082;2023-06-19T08:42:21;9.52;;;8.30;;
64188;SDS011;50493;50.970;10.082;2023-06-19T08:44:49;9.77;;;8.10;;
64188;SDS011;50493;50.970;10.082;2023-06-19T08:47:14;10.38;;;9.27;;
64188;SDS011;50493;50.970;10.082;2023-06-19T08:49:39;14.48;;;8.27;;
64188;SDS011;50493;50.970;10.082;2023-06-19T08:52:05;9.98;;;8.95;;
64188;SDS011;50493;50.970;10.082;2023-06-19T08:54:32;9.18;;;8.20;;
64188;SDS011;50493;50.970;10.082;2023-06-19T08:56:59;8.18;;;7.28;;
64188;SDS011;50493;50.970;10.082;2023-06-19T08:59:25;9.65;;;7.20;;
64188;SDS011;50493;50.970;10.082;2023-06-19T09:01:53;10.25;;;9.02;;
64188;SDS011;50493;50.970;10.082;2023-06-19T09:04:20;8.38;;;7.47;;
64188;SDS011;50493;50.970;10.082;2023-06-19T09:06:49;8.82;;;7.28;;
64188;SDS011;50493;50.970;10.082;2023-06-19T09:09:14;8.48;;;7.55;;
64188;SDS011;50493;50.970;10.082;2023-06-19T09:11:40;9.52;;;7.35;;
64188;SDS011;50493;50.970;10.082;2023-06-19T09:14:08;11.25;;;9.02;;
64188;SDS011;50493;50.970;10.082;2023-06-19T09:16:38;10.18;;;9.07;;
64188;SDS011;50493;50.970;10.082;2023-06-19T09:21:31;9.52;;;8.52;;
64188;SDS011;50493;50.970;10.082;2023-06-19T09:24:01;8.82;;;7.88;;
64188;SDS011;50493;50.970;10.082;2023-06-19T09:26:27;8.35;;;7.13;;
64188;SDS011;50493;50.970;10.082;2023-06-19T09:28:53;8.52;;;7.63;;
64188;SDS011;50493;50.970;10.082;2023-06-19T09:31:18;8.70;;;6.25;;
64188;SDS011;50493;50.970;10.082;2023-06-19T09:33:43;9.32;;;7.68;;
64188;SDS011;50493;50.970;10.082;2023-06-19T09:36:10;9.70;;;8.70;;
64188;SDS011;50493;50.970;10.082;2023-06-19T09:38:36;9.50;;;8.50;;
64188;SDS011;50493;50.970;10.082;2023-06-19T09:41:04;9.93;;;8.93;;
64188;SDS011;50493;50.970;10.082;2023-06-19T09:43:36;11.18;;;9.32;;
64188;SDS011;50493;50.970;10.082;2023-06-19T09:46:03;7.25;;;5.90;;
64188;SDS011;50493;50.970;10.082;2023-06-19T09:48:30;6.68;;;5.97;;
64188;SDS011;50493;50.970;10.082;2023-06-19T09:50:59;8.50;;;7.60;;
64188;SDS011;50493;50.970;10.082;2023-06-19T09:53:27;8.23;;;6.95;;
64188;SDS011;50493;50.970;10.082;2023-06-19T09:55:53;8.45;;;7.55;;
64188;SDS011;50493;50.970;10.082;2023-06-19T09:58:21;8.02;;;6.32;;
64188;SDS011;50493;50.970;10.082;2023-06-19T10:00:47;9.02;;;6.38;;
64188;SDS011;50493;50.970;10.082;2023-06-19T10:03:14;8.02;;;7.22;;
64188;SDS011;50493;50.970;10.082;2023-06-19T10:05:41;9.55;;;8.32;;
64188;SDS011;50493;50.970;10.082;2023-06-19T10:08:08;6.93;;;5.65;;
64188;SDS011;50493;50.970;10.082;2023-06-19T10:10:35;7.45;;;5.40;;
64188;SDS011;50493;50.970;10.082;2023-06-19T10:13:11;8.32;;;5.97;;
64188;SDS011;50493;50.970;10.082;2023-06-19T10:15:40;9.40;;;5.80;;
64188;SDS011;50493;50.970;10.082;2023-06-19T10:18:07;8.70;;;7.80;;
64188;SDS011;50493;50.970;10.082;2023-06-19T10:20:38;7.45;;;5.90;;
64188;SDS011;50493;50.970;10.082;2023-06-19T10:23:03;7.32;;;6.60;;
64188;SDS011;50493;50.970;10.082;2023-06-19T10:25:31;7.45;;;6.15;;
64188;SDS011;50493;50.970;10.082;2023-06-19T10:27:58;6.68;;;5.97;;
64188;SDS011;50493;50.970;10.082;2023-06-19T10:30:24;6.88;;;6.18;;
64188;SDS011;50493;50.970;10.082;2023-06-19T10:32:50;7.75;;;6.95;;
64188;SDS011;50493;50.970;10.082;2023-06-19T10:35:16;7.05;;;6.35;;
64188;SDS011;50493;50.970;10.082;2023-06-19T10:37:43;6.70;;;5.50;;
64188;SDS011;50493;50.970;10.082;2023-06-19T10:40:10;7.78;;;6.70;;
64188;SDS011;50493;50.970;10.082;2023-06-19T10:42:37;7.82;;;6.88;;
64188;SDS011;50493;50.970;10.082;2023-06-19T10:45:05;8.00;;;6.95;;
64188;SDS011;50493;50.970;10.082;2023-06-19T10:47:34;8.07;;;7.28;;
64188;SDS011;50493;50.970;10.082;2023-06-19T10:49:59;8.60;;;7.75;;
64188;SDS011;50493;50.970;10.082;2023-06-19T10:52:24;7.38;;;6.65;;
64188;SDS011;50493;50.970;10.082;2023-06-19T10:54:52;7.78;;;7.05;;
64188;SDS011;50493;50.970;10.082;2023-06-19T10:57:19;7.40;;;6.70;;
64188;SDS011;50493;50.970;10.082;2023-06-19T10:59:51;6.50;;;5.80;;
64188;SDS011;50493;50.970;10.082;2023-06-19T11:02:18;8.02;;;7.30;;
64188;SDS011;50493;50.970;10.082;2023-06-19T11:04:44;8.60;;;7.15;;
64188;SDS011;50493;50.970;10.082;2023-06-19T11:07:09;7.05;;;5.80;;
64188;SDS011;50493;50.970;10.082;2023-06-19T11:09:35;7.55;;;6.70;;
64188;SDS011;50493;50.970;10.082;2023-06-19T11:12:01;7.30;;;6.60;;
64188;SDS011;50493;50.970;10.082;2023-06-19T11:14:28;7.05;;;6.35;;
64188;SDS011;50493;50.970;10.082;2023-06-19T11:16:55;7.15;;;5.93;;
64188;SDS011;50493;50.970;10.082;2023-06-19T11:19:22;7.40;;;5.78;;
64188;SDS011;50493;50.970;10.082;2023-06-19T11:21:48;9.23;;;6.40;;
64188;SDS011;50493;50.970;10.082;2023-06-19T11:24:15;12.23;;;5.57;;
64188;SDS011;50493;50.970;10.082;2023-06-19T11:26:42;7.18;;;6.10;;
64188;SDS011;50493;50.970;10.082;2023-06-19T11:29:15;7.72;;;6.70;;
64188;SDS011;50493;50.970;10.082;2023-06-19T11:31:41;9.35;;;6.25;;
64188;SDS011;50493;50.970;10.082;2023-06-19T11:34:06;7.22;;;6.43;;
64188;SDS011;50493;50.970;10.082;2023-06-19T11:36:33;9.63;;;6.07;;
64188;SDS011;50493;50.970;10.082;2023-06-19T11:39:02;8.98;;;6.13;;
64188;SDS011;50493;50.970;10.082;2023-06-19T11:41:30;7.60;;;6.78;;
64188;SDS011;50493;50.970;10.082;2023-06-19T11:43:58;10.40;;;6.78;;
64188;SDS011;50493;50.970;10.082;2023-06-19T11:46:28;8.63;;;6.38;;
64188;SDS011;50493;50.970;10.082;2023-06-19T11:48:53;7.60;;;6.80;;
64188;SDS011;50493;50.970;10.082;2023-06-19T11:51:19;8.65;;;6.57;;
64188;SDS011;50493;50.970;10.082;2023-06-19T11:53:45;7.13;;;6.43;;
64188;SDS011;50493;50.970;10.082;2023-06-19T11:56:11;7.32;;;6.32;;
64188;SDS011;50493;50.970;10.082;2023-06-19T11:58:36;7.13;;;5.68;;
64188;SDS011;50493;50.970;10.082;2023-06-19T12:01:01;8.00;;;6.53;;
64188;SDS011;50493;50.970;10.082;2023-06-19T12:03:27;6.30;;;5.57;;
64188;SDS011;50493;50.970;10.082;2023-06-19T12:05:52;7.35;;;6.65;;
64188;SDS011;50493;50.970;10.082;2023-06-19T12:08:18;7.70;;;6.78;;
64188;SDS011;50493;50.970;10.082;2023-06-19T12:10:44;7.75;;;6.57;;
64188;SDS011;50493;50.970;10.082;2023-06-19T12:13:10;7.10;;;6.40;;
64188;SDS011;50493;50.970;10.082;2023-06-19T12:15:35;7.53;;;6.43;;
64188;SDS011;50493;50.970;10.082;2023-06-19T12:18:00;7.68;;;6.88;;
64188;SDS011;50493;50.970;10.082;2023-06-19T12:20:26;7.68;;;6.47;;
64188;SDS011;50493;50.970;10.082;2023-06-19T12:22:51;7.47;;;6.63;;
64188;SDS011;50493;50.970;10.082;2023-06-19T12:25:16;7.55;;;6.07;;
64188;SDS011;50493;50.970;10.082;2023-06-19T12:27:43;6.18;;;5.57;;
64188;SDS011;50493;50.970;10.082;2023-06-19T12:30:09;7.30;;;6.22;;
64188;SDS011;50493;50.970;10.082;2023-06-19T12:32:36;6.53;;;5.90;;
64188;SDS011;50493;50.970;10.082;2023-06-19T12:35:01;7.15;;;6.45;;
64188;SDS011;50493;50.970;10.082;2023-06-19T12:37:28;7.57;;;6.88;;
64188;SDS011;50493;50.970;10.082;2023-06-19T12:39:53;8.13;;;5.53;;
64188;SDS011;50493;50.970;10.082;2023-06-19T12:42:18;7.70;;;6.88;;
64188;SDS011;50493;50.970;10.082;2023-06-19T12:44:46;6.85;;;6.07;;
64188;SDS011;50493;50.970;10.082;2023-06-19T12:47:11;6.38;;;5.72;;
64188;SDS011;50493;50.970;10.082;2023-06-19T12:49:37;7.20;;;6.05;;
64188;SDS011;50493;50.970;10.082;2023-06-19T12:52:02;6.93;;;6.22;;
64188;SDS011;50493;50.970;10.082;2023-06-19T12:54:28;6.90;;;6.20;;
64188;SDS011;50493;50.970;10.082;2023-06-19T12:56:53;6.65;;;6.05;;
64188;SDS011;50493;50.970;10.082;2023-06-19T12:59:19;7.30;;;6.55;;
64188;SDS011;50493;50.970;10.082;2023-06-19T13:01:45;6.90;;;5.80;;
64188;SDS011;50493;50.970;10.082;2023-06-19T13:04:11;6.70;;;6.10;;
64188;SDS011;50493;50.970;10.082;2023-06-19T13:06:37;6.32;;;5.72;;
64188;SDS011;50493;50.970;10.082;2023-06-19T13:09:03;6.40;;;4.82;;
64188;SDS011;50493;50.970;10.082;2023-06-19T13:11:30;7.22;;;5.55;;
64188;SDS011;50493;50.970;10.082;2023-06-19T13:13:56;7.25;;;6.13;;
64188;SDS011;50493;50.970;10.082;2023-06-19T13:16:21;6.60;;;5.63;;
64188;SDS011;50493;50.970;10.082;2023-06-19T13:18:50;7.85;;;7.10;;
64188;SDS011;50493;50.970;10.082;2023-06-19T13:21:15;6.68;;;5.93;;
64188;SDS011;50493;50.970;10.082;2023-06-19T13:23:41;8.45;;;7.35;;
64188;SDS011;50493;50.970;10.082;2023-06-19T13:26:06;6.40;;;5.70;;
64188;SDS011;50493;50.970;10.082;2023-06-19T13:28:32;7.38;;;6.68;;
64188;SDS011;50493;50.970;10.082;2023-06-19T13:30:57;6.07;;;5.20;;
64188;SDS011;50493;50.970;10.082;2023-06-19T13:33:22;7.13;;;6.43;;
64188;SDS011;50493;50.970;10.082;2023-06-19T13:35:49;6.05;;;5.00;;
64188;SDS011;50493;50.970;10.082;2023-06-19T13:38:14;5.55;;;5.05;;
64188;SDS011;50493;50.970;10.082;2023-06-19T13:40:40;6.78;;;5.85;;
64188;SDS011;50493;50.970;10.082;2023-06-19T13:43:06;5.32;;;4.82;;
64188;SDS011;50493;50.970;10.082;2023-06-19T13:45:31;5.75;;;4.75;;
64188;SDS011;50493;50.970;10.082;2023-06-19T13:47:57;6.03;;;5.53;;
64188;SDS011;50493;50.970;10.082;2023-06-19T13:50:23;7.22;;;6.53;;
64188;SDS011;50493;50.970;10.082;2023-06-19T13:52:50;5.50;;;4.90;;
64188;SDS011;50493;50.970;10.082;2023-06-19T13:55:15;7.47;;;6.65;;
64188;SDS011;50493;50.970;10.082;2023-06-19T13:57:40;6.53;;;5.93;;
64188;SDS011;50493;50.970;10.082;2023-06-19T14:00:06;6.85;;;6.25;;
64188;SDS011;50493;50.970;10.082;2023-06-19T14:02:33;6.45;;;5.50;;
64188;SDS011;50493;50.970;10.082;2023-06-19T14:04:59;6.93;;;6.32;;
64188;SDS011;50493;50.970;10.082;2023-06-19T14:07:25;6.35;;;5.28;;
64188;SDS011;50493;50.970;10.082;2023-06-19T14:09:52;6.32;;;4.85;;
64188;SDS011;50493;50.970;10.082;2023-06-19T14:12:19;6.80;;;6.10;;
64188;SDS011;50493;50.970;10.082;2023-06-19T14:14:44;5.75;;;4.70;;
64188;SDS011;50493;50.970;10.082;2023-06-19T14:17:10;6.63;;;5.78;;
64188;SDS011;50493;50.970;10.082;2023-06-19T14:19:35;6.10;;;5.50;;
64188;SDS011;50493;50.970;10.082;2023-06-19T14:22:00;6.70;;;6.10;;
64188;SDS011;50493;50.970;10.082;2023-06-19T14:24:27;6.22;;;5.55;;
64188;SDS011;50493;50.970;10.082;2023-06-19T14:26:53;6.95;;;6.25;;